createdAt,value
2023-04-21T00:00:30.055Z,2.85
2023-04-21T00:03:01.001Z,2.45
2023-04-21T00:05:29.182Z,2.88
2023-04-21T00:07:57.122Z,3.10
2023-04-21T00:10:25.107Z,2.83
2023-04-21T00:12:53.008Z,2.90
2023-04-21T00:15:21.088Z,3.10
2023-04-21T00:17:49.084Z,2.60
2023-04-21T00:20:17.239Z,2.92
2023-04-21T00:22:45.249Z,2.72
2023-04-21T00:25:13.281Z,2.72
2023-04-21T00:27:41.180Z,2.92
2023-04-21T00:30:09.395Z,3.05
2023-04-21T00:32:38.503Z,2.90
2023-04-21T00:35:06.669Z,2.80
2023-04-21T00:37:34.751Z,2.97
2023-04-21T00:40:04.158Z,3.15
2023-04-21T00:42:32.445Z,3.50
2023-04-21T00:45:02.216Z,3.13
2023-04-21T00:47:32.056Z,2.83
2023-04-21T00:50:00.787Z,2.85
2023-04-21T00:52:29.038Z,3.22
2023-04-21T00:54:57.910Z,3.08
2023-04-21T00:57:26.103Z,3.20
2023-04-21T00:59:55.271Z,2.90
2023-04-21T01:02:23.636Z,2.97
2023-04-21T01:04:51.732Z,3.30
2023-04-21T01:07:19.850Z,2.90
2023-04-21T01:09:47.753Z,2.58
2023-04-21T01:12:15.714Z,2.38
2023-04-21T01:14:43.790Z,3.05
2023-04-21T01:17:11.869Z,3.13
2023-04-21T01:19:42.832Z,3.20
2023-04-21T01:22:11.302Z,2.65
2023-04-21T01:24:44.686Z,3.05
2023-04-21T01:27:19.102Z,2.83
2023-04-21T01:29:49.388Z,3.10
2023-04-21T01:32:19.038Z,2.85
2023-04-21T01:34:48.228Z,2.90
2023-04-21T01:37:18.130Z,2.78
2023-04-21T01:39:47.184Z,3.17
2023-04-21T01:42:15.679Z,2.53
2023-04-21T01:44:43.552Z,2.90
2023-04-21T01:47:11.695Z,3.00
2023-04-21T01:49:40.849Z,2.72
2023-04-21T01:52:08.812Z,2.78
2023-04-21T01:54:37.097Z,2.53
2023-04-21T01:57:05.239Z,2.83
2023-04-21T01:59:33.138Z,2.70
2023-04-21T02:02:01.070Z,2.88
2023-04-21T02:04:30.179Z,2.63
2023-04-21T02:06:58.225Z,2.50
2023-04-21T02:09:27.236Z,2.70
2023-04-21T02:11:57.378Z,3.17
2023-04-21T02:14:26.176Z,2.90
2023-04-21T02:16:56.402Z,2.85
2023-04-21T02:19:25.475Z,3.15
2023-04-21T02:21:56.133Z,2.72
2023-04-21T02:24:24.257Z,3.58
2023-04-21T02:26:54.139Z,2.90
2023-04-21T02:29:22.263Z,2.85
2023-04-21T02:31:59.343Z,3.30
2023-04-21T02:34:31.555Z,3.00
2023-04-21T02:36:59.911Z,3.03
2023-04-21T02:39:27.827Z,3.35
2023-04-21T02:41:55.727Z,3.35
2023-04-21T02:44:23.639Z,3.20
2023-04-21T02:46:51.485Z,3.38
2023-04-21T02:49:19.552Z,3.17
2023-04-21T02:51:48.081Z,3.42
2023-04-21T02:54:16.066Z,3.00
2023-04-21T02:56:43.959Z,3.08
2023-04-21T02:59:16.449Z,3.28
2023-04-21T03:01:44.671Z,2.92
2023-04-21T03:04:13.137Z,3.35
2023-04-21T03:06:41.249Z,3.10
2023-04-21T03:09:09.287Z,2.80
2023-04-21T03:11:37.204Z,3.67
2023-04-21T03:14:05.074Z,3.13
2023-04-21T03:16:33.090Z,3.10
2023-04-21T03:19:01.335Z,3.08
2023-04-21T03:21:30.033Z,2.72
2023-04-21T03:23:58.011Z,2.95
2023-04-21T03:26:25.921Z,3.38
2023-04-21T03:28:53.703Z,3.65
2023-04-21T03:31:21.719Z,4.07
2023-04-21T03:33:49.589Z,3.63
2023-04-21T03:36:17.574Z,3.78
2023-04-21T03:38:46.623Z,3.10
2023-04-21T03:41:14.506Z,3.38
2023-04-21T03:43:42.955Z,3.65
2023-04-21T03:46:18.530Z,3.40
2023-04-21T03:48:46.900Z,3.47
2023-04-21T03:51:15.278Z,3.75
2023-04-21T03:53:44.300Z,3.60
2023-04-21T03:56:12.158Z,3.55
2023-04-21T03:58:40.271Z,3.40
2023-04-21T04:01:08.345Z,3.35
2023-04-21T04:03:36.462Z,3.55
2023-04-21T04:06:04.467Z,3.40
2023-04-21T04:08:32.425Z,4.10
2023-04-21T04:11:00.424Z,3.78
2023-04-21T04:13:29.489Z,4.30
2023-04-21T04:15:59.118Z,4.03
2023-04-21T04:18:27.061Z,3.45
2023-04-21T04:20:54.911Z,4.45
2023-04-21T04:23:22.918Z,4.38
2023-04-21T04:25:52.117Z,4.07
2023-04-21T04:28:20.122Z,4.15
2023-04-21T04:30:48.880Z,3.83
2023-04-21T04:33:16.881Z,3.88
2023-04-21T04:35:45.031Z,3.90
2023-04-21T04:38:14.864Z,4.22
2023-04-21T04:40:42.774Z,4.75
2023-04-21T04:43:11.988Z,4.47
2023-04-21T04:45:39.807Z,4.15
2023-04-21T04:48:07.770Z,4.35
2023-04-21T04:50:35.690Z,4.20
2023-04-21T04:53:03.594Z,3.92
2023-04-21T04:55:31.493Z,4.22
2023-04-21T04:57:59.387Z,4.72
2023-04-21T05:00:28.899Z,4.30
2023-04-21T05:02:56.907Z,5.03
2023-04-21T05:05:27.888Z,4.65
2023-04-21T05:07:55.995Z,4.82
2023-04-21T05:10:24.097Z,4.38
2023-04-21T05:12:52.051Z,4.50
2023-04-21T05:15:20.020Z,4.28
2023-04-21T05:17:47.962Z,4.35
2023-04-21T05:20:16.151Z,4.22
2023-04-21T05:22:43.993Z,4.50
2023-04-21T05:25:16.049Z,4.75
2023-04-21T05:27:44.207Z,4.78
2023-04-21T05:30:12.354Z,5.50
2023-04-21T05:32:40.320Z,4.65
2023-04-21T05:35:08.548Z,4.68
2023-04-21T05:37:36.388Z,4.90
2023-04-21T05:40:05.383Z,4.82
2023-04-21T05:42:33.345Z,5.50
2023-04-21T05:45:01.319Z,5.22
2023-04-21T05:47:29.319Z,5.53
2023-04-21T05:49:57.334Z,4.95
2023-04-21T05:52:25.330Z,5.55
2023-04-21T05:54:53.376Z,18.08
2023-04-21T05:57:21.255Z,28.65
2023-04-21T05:59:49.419Z,15.95
2023-04-21T06:02:36.187Z,5.95
2023-04-21T06:05:04.613Z,5.35
2023-04-21T06:07:32.845Z,6.22
2023-04-21T06:10:00.765Z,6.32
2023-04-21T06:12:28.736Z,6.15
2023-04-21T06:14:57.873Z,6.75
2023-04-21T06:17:26.268Z,6.10
2023-04-21T06:19:54.187Z,5.68
2023-04-21T06:22:22.298Z,5.60
2023-04-21T06:24:50.084Z,5.53
2023-04-21T06:27:18.246Z,5.38
2023-04-21T06:29:46.140Z,5.40
2023-04-21T06:32:14.031Z,5.22
2023-04-21T06:34:41.889Z,4.72
2023-04-21T06:37:09.751Z,4.93
2023-04-21T06:39:37.609Z,4.65
2023-04-21T06:42:05.672Z,4.88
2023-04-21T06:44:41.295Z,4.70
2023-04-21T06:47:09.689Z,4.90
2023-04-21T06:49:37.783Z,5.35
2023-04-21T06:52:05.931Z,5.10
2023-04-21T06:54:33.911Z,4.75
2023-04-21T06:57:02.226Z,4.78
2023-04-21T06:59:30.446Z,5.13
2023-04-21T07:01:58.218Z,4.57
2023-04-21T07:04:30.176Z,4.53
2023-04-21T07:07:00.463Z,4.38
2023-04-21T07:09:30.936Z,4.18
2023-04-21T07:11:58.894Z,4.38
2023-04-21T07:14:26.837Z,4.40
2023-04-21T07:16:57.287Z,4.03
2023-04-21T07:19:25.540Z,4.72
2023-04-21T07:21:53.545Z,3.95
2023-04-21T07:24:21.593Z,4.50
2023-04-21T07:26:49.658Z,4.50
2023-04-21T07:29:17.867Z,4.45
2023-04-21T07:31:48.421Z,4.40
2023-04-21T07:34:16.322Z,3.90
2023-04-21T07:36:44.320Z,3.80
2023-04-21T07:39:12.247Z,3.70
2023-04-21T07:41:40.288Z,4.28
2023-04-21T07:44:08.121Z,4.50
2023-04-21T07:46:36.225Z,3.78
2023-04-21T07:49:04.446Z,4.18
2023-04-21T07:51:32.818Z,4.20
2023-04-21T07:54:00.802Z,4.13
2023-04-21T07:56:28.742Z,4.47
2023-04-21T07:58:56.776Z,4.38
2023-04-21T08:01:24.904Z,3.83
2023-04-21T08:03:52.958Z,4.10
2023-04-21T08:06:21.414Z,4.32
2023-04-21T08:08:50.294Z,4.25
2023-04-21T08:11:18.355Z,4.13
2023-04-21T08:13:46.316Z,4.15
2023-04-21T08:16:14.521Z,4.35
2023-04-21T08:18:42.491Z,4.20
2023-04-21T08:21:10.606Z,4.03
2023-04-21T08:23:41.554Z,4.57
2023-04-21T08:26:10.013Z,4.22
2023-04-21T08:28:38.075Z,4.70
2023-04-21T08:31:06.114Z,4.45
2023-04-21T08:33:34.113Z,4.30
2023-04-21T08:36:09.911Z,4.18
2023-04-21T08:38:44.015Z,4.20
2023-04-21T08:41:11.843Z,4.57
2023-04-21T08:43:39.755Z,4.28
2023-04-21T08:46:08.671Z,4.50
2023-04-21T08:48:37.635Z,4.15
2023-04-21T08:51:09.845Z,4.28
2023-04-21T08:53:38.132Z,4.10
2023-04-21T08:58:37.135Z,4.97
2023-04-21T09:01:04.981Z,4.40
2023-04-21T09:03:33.306Z,4.38
2023-04-21T09:06:05.684Z,4.22
2023-04-21T09:08:34.402Z,4.75
2023-04-21T09:11:02.479Z,4.20
2023-04-21T09:13:34.739Z,4.75
2023-04-21T09:16:07.350Z,4.07
2023-04-21T09:18:40.389Z,4.22
2023-04-21T09:21:12.660Z,4.65
2023-04-21T09:23:41.784Z,3.95
2023-04-21T09:26:10.329Z,4.18
2023-04-21T09:28:38.255Z,4.93
2023-04-21T09:31:06.151Z,4.18
2023-04-21T09:33:45.710Z,4.05
2023-04-21T09:36:26.376Z,3.92
2023-04-21T09:39:20.740Z,4.03
2023-04-21T09:41:46.749Z,4.00
2023-04-21T09:44:14.751Z,3.45
2023-04-21T09:46:45.073Z,3.30
2023-04-21T09:49:14.645Z,3.50
2023-04-21T09:52:14.231Z,4.43
2023-04-21T09:54:33.243Z,3.60
2023-04-21T09:57:02.582Z,3.63
2023-04-21T09:59:33.194Z,3.50
2023-04-21T10:02:02.583Z,3.67
2023-04-21T10:04:33.387Z,3.40
2023-04-21T10:07:01.698Z,3.08
2023-04-21T10:09:36.047Z,2.92
2023-04-21T10:12:06.912Z,2.83
2023-04-21T10:14:36.485Z,3.03
2023-04-21T10:17:05.820Z,4.20
2023-04-21T10:19:41.867Z,3.60
2023-04-21T10:22:10.493Z,3.22
2023-04-21T10:24:42.323Z,3.35
2023-04-21T10:27:31.335Z,3.53
2023-04-21T10:30:00.002Z,3.72
2023-04-21T10:32:54.260Z,3.25
2023-04-21T10:35:25.219Z,3.17
2023-04-21T10:37:53.159Z,3.22
2023-04-21T10:40:44.207Z,3.30
2023-04-21T10:43:36.294Z,3.10
2023-04-21T10:46:24.090Z,3.33
2023-04-21T10:48:55.027Z,3.38
2023-04-21T10:51:23.588Z,3.40
2023-04-21T10:53:51.453Z,2.75
2023-04-21T10:56:20.223Z,3.47
2023-04-21T10:58:50.594Z,3.10
2023-04-21T11:01:19.178Z,3.42
2023-04-21T11:03:47.315Z,2.65
2023-04-21T11:06:17.914Z,2.70
2023-04-21T11:08:58.634Z,2.70
2023-04-21T11:11:29.699Z,2.70
2023-04-21T11:14:01.581Z,2.53
2023-04-21T11:16:29.523Z,2.97
2023-04-21T11:18:57.835Z,3.15
2023-04-21T11:21:25.648Z,2.97
2023-04-21T11:23:54.748Z,3.10
2023-04-21T11:26:36.807Z,2.58
2023-04-21T11:29:09.096Z,2.72
2023-04-21T11:31:37.961Z,2.65
2023-04-21T11:34:06.943Z,2.92
2023-04-21T11:36:42.125Z,2.95
2023-04-21T11:39:14.317Z,2.80
2023-04-21T11:41:44.690Z,2.15
2023-04-21T11:44:13.175Z,2.58
2023-04-21T11:46:48.004Z,2.25
2023-04-21T11:49:26.864Z,2.30
2023-04-21T11:51:57.016Z,2.45
2023-04-21T11:54:25.130Z,1.75
2023-04-21T11:56:56.082Z,1.80
2023-04-21T11:59:26.375Z,2.33
2023-04-21T12:01:54.821Z,2.60
2023-04-21T12:04:24.801Z,2.55
2023-04-21T12:07:11.757Z,3.08
2023-04-21T12:09:39.610Z,3.20
2023-04-21T12:12:08.398Z,2.78
2023-04-21T12:14:36.494Z,2.97
2023-04-21T12:17:07.613Z,2.80
2023-04-21T12:19:37.118Z,3.00
2023-04-21T12:22:08.072Z,2.83
2023-04-21T12:24:36.911Z,3.30
2023-04-21T12:27:05.773Z,4.00
2023-04-21T12:29:38.033Z,3.70
2023-04-21T12:32:06.964Z,4.07
2023-04-21T12:34:35.458Z,3.40
2023-04-21T12:37:03.750Z,3.60
2023-04-21T12:39:32.048Z,3.47
2023-04-21T12:42:00.832Z,4.13
2023-04-21T12:44:28.969Z,3.60
2023-04-21T12:46:57.473Z,4.00
2023-04-21T12:49:25.847Z,3.58
2023-04-21T12:51:53.767Z,4.10
2023-04-21T12:54:21.725Z,4.18
2023-04-21T12:56:49.566Z,3.47
2023-04-21T12:59:17.461Z,4.05
2023-04-21T13:01:45.900Z,3.90
2023-04-21T13:04:14.151Z,3.85
2023-04-21T13:06:42.212Z,4.38
2023-04-21T13:09:09.975Z,3.95
2023-04-21T13:11:37.765Z,3.95
2023-04-21T13:14:05.951Z,3.78
2023-04-21T13:16:33.795Z,3.53
2023-04-21T13:19:01.820Z,3.72
2023-04-21T13:21:29.674Z,3.97
2023-04-21T13:23:58.368Z,4.05
2023-04-21T13:26:26.722Z,3.60
2023-04-21T13:28:54.673Z,3.45
2023-04-21T13:31:22.561Z,3.47
2023-04-21T13:33:53.040Z,3.67
2023-04-21T13:36:21.888Z,3.88
2023-04-21T13:38:51.224Z,3.83
2023-04-21T13:41:19.092Z,3.78
2023-04-21T13:43:47.074Z,3.28
2023-04-21T13:46:15.086Z,2.35
2023-04-21T13:48:43.294Z,2.63
2023-04-21T13:51:11.230Z,2.42
2023-04-21T13:53:39.270Z,2.10
2023-04-21T13:56:07.250Z,2.03
2023-04-21T13:58:36.025Z,2.30
2023-04-21T14:01:04.434Z,2.20
2023-04-21T14:03:32.574Z,2.15
2023-04-21T14:06:00.608Z,1.80
2023-04-21T14:08:28.497Z,1.92
2023-04-21T14:10:57.746Z,1.80
2023-04-21T14:13:36.338Z,1.65
2023-04-21T14:16:08.295Z,1.70
2023-04-21T14:18:37.927Z,1.65
2023-04-21T14:21:05.818Z,1.63
2023-04-21T14:23:33.803Z,1.80
2023-04-21T14:26:01.669Z,1.60
2023-04-21T14:28:29.559Z,1.55
2023-04-21T14:30:57.578Z,1.60
2023-04-21T14:33:25.591Z,1.15
2023-04-21T14:35:53.502Z,1.08
2023-04-21T14:38:21.503Z,1.15
2023-04-21T14:40:49.969Z,1.00
2023-04-21T14:43:17.928Z,1.30
2023-04-21T14:45:45.884Z,1.30
2023-04-21T14:48:14.351Z,0.93
2023-04-21T14:50:42.381Z,1.40
2023-04-21T14:53:10.951Z,1.35
2023-04-21T14:55:38.775Z,1.40
2023-04-21T14:58:07.448Z,1.33
2023-04-21T15:00:36.521Z,1.05
2023-04-21T15:03:04.760Z,1.35
2023-04-21T15:05:34.837Z,1.10
2023-04-21T15:08:03.060Z,1.10
2023-04-21T15:10:32.494Z,1.30
2023-04-21T15:13:00.843Z,1.20
2023-04-21T15:15:28.960Z,1.27
2023-04-21T15:17:56.928Z,1.60
2023-04-21T15:20:36.548Z,1.17
2023-04-21T15:23:09.453Z,2.20
2023-04-21T15:25:37.383Z,1.50
2023-04-21T15:28:05.180Z,1.60
2023-04-21T15:30:33.503Z,1.20
2023-04-21T15:33:01.544Z,2.20
2023-04-21T15:35:29.669Z,2.05
2023-04-21T15:37:57.550Z,2.50
2023-04-21T15:40:25.752Z,2.53
2023-04-21T15:42:53.732Z,2.30
2023-04-21T15:45:21.816Z,2.50
2023-04-21T15:47:49.694Z,3.05
2023-04-21T15:50:18.092Z,2.38
2023-04-21T15:52:45.926Z,2.67
2023-04-21T15:55:13.983Z,2.45
2023-04-21T15:57:41.889Z,2.80
2023-04-21T16:00:13.093Z,2.53
2023-04-21T16:02:42.558Z,3.88
2023-04-21T16:05:10.795Z,3.33
2023-04-21T16:07:39.002Z,3.22
2023-04-21T16:10:07.317Z,3.42
2023-04-21T16:12:35.166Z,12.90
2023-04-21T16:15:20.134Z,5.70
2023-04-21T16:17:50.967Z,3.58
2023-04-21T16:20:18.929Z,3.47
2023-04-21T16:22:49.353Z,3.40
2023-04-21T16:25:19.103Z,3.00
2023-04-21T16:27:47.829Z,3.00
2023-04-21T16:30:16.372Z,2.90
2023-04-21T16:32:44.409Z,3.42
2023-04-21T16:35:12.271Z,3.80
2023-04-21T16:37:42.789Z,3.35
2023-04-21T16:40:11.412Z,3.65
2023-04-21T16:42:39.380Z,3.58
2023-04-21T16:45:07.595Z,3.33
2023-04-21T16:47:41.248Z,3.45
2023-04-21T16:50:09.771Z,3.08
2023-04-21T16:52:37.884Z,3.13
2023-04-21T16:55:05.967Z,3.10
2023-04-21T16:57:34.988Z,3.40
2023-04-21T17:00:07.118Z,3.25
2023-04-21T17:02:35.329Z,3.47
2023-04-21T17:05:04.212Z,3.47
2023-04-21T17:07:32.256Z,3.70
2023-04-21T17:10:00.496Z,3.25
2023-04-21T17:12:28.414Z,3.30
2023-04-21T17:14:56.351Z,2.80
2023-04-21T17:17:24.268Z,4.90
2023-04-21T17:19:54.236Z,4.97
2023-04-21T17:22:22.143Z,6.28
2023-04-21T17:24:53.847Z,5.93
2023-04-21T17:27:22.371Z,7.07
2023-04-21T17:29:50.681Z,7.13
2023-04-21T17:32:18.927Z,7.85
2023-04-21T17:34:49.064Z,7.57
2023-04-21T17:37:16.930Z,7.05
2023-04-21T17:39:44.974Z,6.13
2023-04-21T17:42:12.953Z,6.88
2023-04-21T17:44:41.417Z,6.70
2023-04-21T17:47:09.830Z,7.15
2023-04-21T17:49:38.124Z,6.80
2023-04-21T17:52:06.509Z,7.50
2023-04-21T17:54:34.517Z,7.20
2023-04-21T17:57:03.365Z,6.90
2023-04-21T17:59:31.509Z,6.97
2023-04-21T18:02:00.616Z,7.25
2023-04-21T18:04:30.852Z,6.55
2023-04-21T18:06:59.208Z,6.53
2023-04-21T18:09:27.234Z,6.75
2023-04-21T18:11:55.588Z,6.72
2023-04-21T18:14:24.336Z,6.50
2023-04-21T18:16:52.252Z,7.07
2023-04-21T18:19:20.304Z,7.60
2023-04-21T18:21:48.173Z,6.93
2023-04-21T18:24:16.337Z,7.88
2023-04-21T18:26:44.478Z,11.82
2023-04-21T18:29:15.059Z,9.80
2023-04-21T18:31:44.579Z,8.10
2023-04-21T18:34:14.430Z,8.18
2023-04-21T18:36:45.263Z,9.07
2023-04-21T18:39:13.204Z,9.32
2023-04-21T18:41:42.071Z,8.18
2023-04-21T18:44:10.233Z,8.48
2023-04-21T18:46:38.471Z,9.05
2023-04-21T18:49:06.455Z,8.73
2023-04-21T18:51:34.423Z,8.02
2023-04-21T18:54:02.343Z,8.77
2023-04-21T18:56:31.547Z,8.75
2023-04-21T18:59:00.118Z,8.95
2023-04-21T19:01:28.660Z,8.32
2023-04-21T19:03:59.853Z,8.52
2023-04-21T19:06:29.333Z,8.40
2023-04-21T19:08:57.974Z,8.80
2023-04-21T19:11:26.019Z,9.15
2023-04-21T19:13:54.061Z,8.55
2023-04-21T19:16:22.015Z,10.07
2023-04-21T19:18:52.185Z,9.40
2023-04-21T19:21:20.191Z,10.75
2023-04-21T19:23:48.596Z,9.65
2023-04-21T19:26:16.620Z,10.90
2023-04-21T19:28:44.585Z,10.18
2023-04-21T19:31:12.386Z,9.52
2023-04-21T19:33:40.473Z,9.63
2023-04-21T19:36:09.470Z,8.70
2023-04-21T19:38:37.656Z,7.50
2023-04-21T19:41:05.543Z,7.03
2023-04-21T19:43:33.727Z,5.93
2023-04-21T19:46:01.662Z,5.60
2023-04-21T19:48:29.798Z,5.20
2023-04-21T19:50:57.691Z,4.93
2023-04-21T19:53:25.747Z,4.50
2023-04-21T19:55:54.178Z,4.45
2023-04-21T19:58:31.972Z,4.80
2023-04-21T20:01:07.541Z,4.65
2023-04-21T20:03:38.172Z,5.68
2023-04-21T20:06:06.738Z,5.25
2023-04-21T20:08:35.710Z,4.63
2023-04-21T20:11:03.811Z,4.47
2023-04-21T20:13:31.665Z,4.05
2023-04-21T20:15:59.596Z,3.95
2023-04-21T20:18:27.548Z,4.65
2023-04-21T20:20:55.620Z,4.60
2023-04-21T20:23:23.765Z,5.40
2023-04-21T20:25:51.630Z,3.90
2023-04-21T20:28:20.154Z,3.90
2023-04-21T20:30:50.549Z,4.55
2023-04-21T20:33:18.487Z,4.53
2023-04-21T20:35:46.564Z,4.78
2023-04-21T20:38:14.475Z,4.50
2023-04-21T20:40:43.116Z,4.70
2023-04-21T20:43:12.400Z,4.93
2023-04-21T20:45:41.401Z,4.93
2023-04-21T20:48:09.345Z,4.43
2023-04-21T20:50:37.512Z,4.68
2023-04-21T20:53:07.464Z,4.85
2023-04-21T20:55:35.859Z,4.32
2023-04-21T20:58:04.761Z,4.68
2023-04-21T21:00:34.365Z,5.53
2023-04-21T21:03:03.191Z,4.68
2023-04-21T21:05:33.456Z,5.07
2023-04-21T21:08:01.499Z,4.35
2023-04-21T21:10:29.592Z,4.40
2023-04-21T21:12:59.568Z,4.55
2023-04-21T21:15:28.724Z,4.70
2023-04-21T21:17:57.202Z,4.05
2023-04-21T21:20:25.323Z,4.03
2023-04-21T21:22:54.740Z,4.03
2023-04-21T21:25:24.837Z,4.50
2023-04-21T21:27:53.729Z,4.20
2023-04-21T21:30:22.252Z,5.05
2023-04-21T21:32:51.158Z,3.80
2023-04-21T21:35:18.994Z,4.82
2023-04-21T21:37:47.150Z,4.10
2023-04-21T21:40:15.310Z,4.65
2023-04-21T21:42:43.392Z,4.30
2023-04-21T21:45:11.535Z,4.18
2023-04-21T21:47:42.816Z,27.30
2023-04-21T21:50:15.389Z,9.50
2023-04-21T21:52:43.467Z,4.93
2023-04-21T21:55:11.398Z,4.88
2023-04-21T21:57:39.267Z,4.85
2023-04-21T22:00:14.629Z,5.53
2023-04-21T22:02:43.009Z,6.90
2023-04-21T22:05:11.205Z,5.00
2023-04-21T22:07:43.204Z,4.90
2023-04-21T22:10:11.902Z,4.82
2023-04-21T22:12:40.320Z,5.03
2023-04-21T22:15:08.516Z,5.30
2023-04-21T22:17:38.016Z,5.25
2023-04-21T22:20:07.554Z,4.68
2023-04-21T22:22:35.822Z,4.53
2023-04-21T22:25:03.971Z,4.97
2023-04-21T22:27:33.764Z,4.22
2023-04-21T22:30:03.666Z,5.40
2023-04-21T22:32:32.479Z,4.30
2023-04-21T22:35:00.774Z,4.70
2023-04-21T22:37:28.880Z,4.57
2023-04-21T22:39:57.774Z,5.05
2023-04-21T22:42:25.704Z,4.90
2023-04-21T22:44:53.582Z,5.55
2023-04-21T22:47:21.416Z,4.63
2023-04-21T22:49:49.531Z,4.85
2023-04-21T22:52:17.355Z,5.00
2023-04-21T22:54:45.322Z,5.18
2023-04-21T22:57:13.187Z,5.00
2023-04-21T22:59:41.212Z,4.75
2023-04-21T23:02:09.136Z,5.43
2023-04-21T23:04:37.070Z,5.15
2023-04-21T23:07:05.223Z,4.97
2023-04-21T23:09:33.130Z,4.43
2023-04-21T23:12:01.574Z,4.75
2023-04-21T23:14:29.732Z,4.90
2023-04-21T23:16:57.695Z,5.05
2023-04-21T23:19:25.728Z,4.82
2023-04-21T23:21:53.654Z,4.85
2023-04-21T23:24:21.643Z,4.80
2023-04-21T23:26:49.510Z,4.07
2023-04-21T23:29:17.591Z,3.92
2023-04-21T23:31:45.806Z,3.92
2023-04-21T23:34:15.022Z,3.78
2023-04-21T23:36:43.071Z,4.15
2023-04-21T23:39:14.240Z,4.07
2023-04-21T23:41:42.078Z,3.75
2023-04-21T23:44:10.151Z,3.47
2023-04-21T23:46:38.052Z,3.17
2023-04-21T23:49:06.360Z,3.25
2023-04-21T23:51:34.186Z,3.25
2023-04-21T23:54:02.281Z,3.33
2023-04-21T23:56:30.204Z,4.00
2023-04-21T23:58:58.535Z,3.55
